createdAt,value
2022-12-17T00:00:03.627Z,99.99
2022-12-17T00:01:03.613Z,99.99
2022-12-17T00:02:04.690Z,99.99
2022-12-17T00:03:04.847Z,99.99
2022-12-17T00:04:04.496Z,99.99
2022-12-17T00:05:04.238Z,99.99
2022-12-17T00:06:04.757Z,99.99
2022-12-17T00:07:04.120Z,99.99
2022-12-17T00:08:04.213Z,99.99
2022-12-17T00:09:03.830Z,99.99
2022-12-17T00:10:03.850Z,99.99
2022-12-17T00:11:04.032Z,99.99
2022-12-17T00:12:04.562Z,99.99
2022-12-17T00:13:04.420Z,99.99
2022-12-17T00:14:04.140Z,99.99
2022-12-17T00:15:04.039Z,99.99
2022-12-17T00:16:04.017Z,99.99
2022-12-17T00:17:04.783Z,99.99
2022-12-17T00:18:04.477Z,99.99
2022-12-17T00:19:04.484Z,99.99
2022-12-17T00:20:04.443Z,99.91
2022-12-17T00:21:04.446Z,99.91
2022-12-17T00:22:03.704Z,99.80
2022-12-17T00:23:03.662Z,99.99
2022-12-17T00:24:04.263Z,99.99
2022-12-17T00:25:04.009Z,99.91
2022-12-17T00:26:04.131Z,99.99
2022-12-17T00:27:04.166Z,99.99
2022-12-17T00:28:04.585Z,99.91
2022-12-17T00:29:04.332Z,99.80
2022-12-17T00:30:04.063Z,99.74
2022-12-17T00:31:04.397Z,99.99
2022-12-17T00:32:04.250Z,99.99
2022-12-17T00:33:04.567Z,99.99
2022-12-17T00:34:04.558Z,99.99
2022-12-17T00:35:04.465Z,99.99
2022-12-17T00:36:04.234Z,99.99
2022-12-17T00:37:04.354Z,99.99
2022-12-17T00:38:04.376Z,99.99
2022-12-17T00:39:04.436Z,99.99
2022-12-17T00:40:04.613Z,99.99
2022-12-17T00:41:04.574Z,99.99
2022-12-17T00:42:04.249Z,99.99
2022-12-17T00:43:04.220Z,99.99
2022-12-17T00:44:04.269Z,99.99
2022-12-17T00:45:03.941Z,99.80
2022-12-17T00:46:04.260Z,99.70
2022-12-17T00:47:03.422Z,99.49
2022-12-17T00:48:03.839Z,99.38
2022-12-17T00:49:03.963Z,99.43
2022-12-17T00:50:03.793Z,99.64
2022-12-17T00:51:03.953Z,99.54
2022-12-17T00:52:04.080Z,99.43
2022-12-17T00:53:04.414Z,99.74
2022-12-17T00:54:04.465Z,99.85
2022-12-17T00:55:04.285Z,99.99
2022-12-17T00:56:04.306Z,99.99
2022-12-17T00:57:04.513Z,99.99
2022-12-17T00:58:04.246Z,99.99
2022-12-17T00:59:04.372Z,99.99
2022-12-17T01:00:04.718Z,99.99
2022-12-17T01:01:04.287Z,99.99
2022-12-17T01:02:04.375Z,99.99
2022-12-17T01:03:04.239Z,99.99
2022-12-17T01:04:04.199Z,99.99
2022-12-17T01:05:04.146Z,99.99
2022-12-17T01:06:04.207Z,99.99
2022-12-17T01:07:03.960Z,99.99
2022-12-17T01:08:03.608Z,99.99
2022-12-17T01:09:03.476Z,99.99
2022-12-17T01:10:03.458Z,99.99
2022-12-17T01:11:03.755Z,99.99
2022-12-17T01:12:04.202Z,99.99
2022-12-17T01:13:04.082Z,99.99
2022-12-17T01:14:04.182Z,99.99
2022-12-17T01:15:04.026Z,99.99
2022-12-17T01:16:03.712Z,99.99
2022-12-17T01:17:03.415Z,99.99
2022-12-17T01:18:03.263Z,99.99
2022-12-17T01:19:03.248Z,99.99
2022-12-17T01:20:03.428Z,99.99
2022-12-17T01:21:03.400Z,99.99
2022-12-17T01:22:03.439Z,99.99
2022-12-17T01:23:03.441Z,99.99
2022-12-17T01:24:03.816Z,99.99
2022-12-17T01:25:03.877Z,99.99
2022-12-17T01:26:03.419Z,99.99
2022-12-17T01:27:03.477Z,99.99
2022-12-17T01:28:03.897Z,99.99
2022-12-17T01:29:03.701Z,99.99
2022-12-17T01:30:03.566Z,99.99
2022-12-17T01:31:03.753Z,99.99
2022-12-17T01:32:04.013Z,99.99
2022-12-17T01:33:03.574Z,99.99
2022-12-17T01:34:04.118Z,99.99
2022-12-17T01:35:03.662Z,99.99
2022-12-17T01:36:03.563Z,99.99
2022-12-17T01:37:03.090Z,99.99
2022-12-17T01:38:03.531Z,99.99
2022-12-17T01:39:03.452Z,99.99
2022-12-17T01:40:03.179Z,99.99
2022-12-17T01:41:03.580Z,99.99
2022-12-17T01:42:03.168Z,99.99
2022-12-17T01:43:03.053Z,99.99
2022-12-17T01:44:03.292Z,99.99
2022-12-17T01:45:03.249Z,99.99
2022-12-17T01:46:03.678Z,99.99
2022-12-17T01:47:03.530Z,99.99
2022-12-17T01:48:03.780Z,99.99
2022-12-17T01:49:03.838Z,99.99
2022-12-17T01:50:03.850Z,99.99
2022-12-17T01:51:03.675Z,99.99
2022-12-17T01:52:03.189Z,99.99
2022-12-17T01:53:02.933Z,99.99
2022-12-17T01:54:03.102Z,99.99
2022-12-17T01:55:03.103Z,99.99
2022-12-17T01:56:02.931Z,99.99
2022-12-17T01:57:03.330Z,99.99
2022-12-17T01:58:03.284Z,99.99
2022-12-17T01:59:03.436Z,99.99
2022-12-17T02:00:03.925Z,99.99
2022-12-17T02:01:03.939Z,99.99
2022-12-17T02:02:03.910Z,99.99
2022-12-17T02:03:03.779Z,99.99
2022-12-17T02:04:03.483Z,99.99
2022-12-17T02:05:03.836Z,99.99
2022-12-17T02:06:03.497Z,99.99
2022-12-17T02:07:04.473Z,99.99
2022-12-17T02:08:04.043Z,99.99
2022-12-17T02:09:04.217Z,99.99
2022-12-17T02:10:04.351Z,99.99
2022-12-17T02:11:04.085Z,99.99
2022-12-17T02:12:03.411Z,99.99
2022-12-17T02:13:03.651Z,99.99
2022-12-17T02:14:03.555Z,99.99
2022-12-17T02:15:03.053Z,99.99
2022-12-17T02:16:03.412Z,99.99
2022-12-17T02:17:03.719Z,99.99
2022-12-17T02:18:03.795Z,99.99
2022-12-17T02:19:03.247Z,99.99
2022-12-17T02:20:03.271Z,99.99
2022-12-17T02:21:03.604Z,99.99
2022-12-17T02:22:03.486Z,99.99
2022-12-17T02:23:03.946Z,99.99
2022-12-17T02:24:04.122Z,99.99
2022-12-17T02:25:04.019Z,99.99
2022-12-17T02:26:03.868Z,99.99
2022-12-17T02:27:03.080Z,99.99
2022-12-17T02:28:03.105Z,99.99
2022-12-17T02:29:03.362Z,99.99
2022-12-17T02:30:03.263Z,99.99
2022-12-17T02:31:03.535Z,99.99
2022-12-17T02:32:04.116Z,99.99
2022-12-17T02:33:04.067Z,99.99
2022-12-17T02:34:03.708Z,99.99
2022-12-17T02:35:03.535Z,99.99
2022-12-17T02:36:03.801Z,99.99
2022-12-17T02:37:03.878Z,99.99
2022-12-17T02:38:03.921Z,99.99
2022-12-17T02:39:03.974Z,99.99
2022-12-17T02:40:04.322Z,99.99
2022-12-17T02:41:03.835Z,99.99
2022-12-17T02:42:03.550Z,99.99
2022-12-17T02:43:03.455Z,99.99
2022-12-17T02:44:03.000Z,99.99
2022-12-17T02:45:02.968Z,99.99
2022-12-17T02:46:03.607Z,99.99
2022-12-17T02:47:04.091Z,99.99
2022-12-17T02:48:03.970Z,99.99
2022-12-17T02:49:03.483Z,99.99
2022-12-17T02:50:03.752Z,99.99
2022-12-17T02:51:03.830Z,99.99
2022-12-17T02:52:03.052Z,99.99
2022-12-17T02:53:03.378Z,99.99
2022-12-17T02:54:03.210Z,99.99
2022-12-17T02:55:03.175Z,99.99
2022-12-17T02:56:03.597Z,99.99
2022-12-17T02:57:03.990Z,99.99
2022-12-17T02:58:03.684Z,99.93
2022-12-17T02:59:03.668Z,99.61
2022-12-17T03:00:04.099Z,99.51
2022-12-17T03:01:03.886Z,99.19
2022-12-17T03:02:04.542Z,98.88
2022-12-17T03:03:03.795Z,98.77
2022-12-17T03:04:04.374Z,98.66
2022-12-17T03:05:27.574Z,98.71
2022-12-17T03:06:03.872Z,98.92
2022-12-17T03:07:04.190Z,99.24
2022-12-17T03:08:04.094Z,99.34
2022-12-17T03:09:04.064Z,99.39
2022-12-17T03:10:04.599Z,99.70
2022-12-17T03:11:04.071Z,99.91
2022-12-17T03:12:03.812Z,99.99
2022-12-17T03:13:03.993Z,99.99
2022-12-17T03:14:03.814Z,99.98
2022-12-17T03:15:03.736Z,99.66
2022-12-17T03:16:03.653Z,99.60
2022-12-17T03:17:04.197Z,99.60
2022-12-17T03:18:03.761Z,99.60
2022-12-17T03:19:03.664Z,99.49
2022-12-17T03:20:03.547Z,99.39
2022-12-17T03:21:03.824Z,99.18
2022-12-17T03:22:03.687Z,99.18
2022-12-17T03:23:03.589Z,99.33
2022-12-17T03:24:03.364Z,99.49
2022-12-17T03:25:03.464Z,99.60
2022-12-17T03:26:03.564Z,99.64
2022-12-17T03:27:04.153Z,99.64
2022-12-17T03:28:03.950Z,99.75
2022-12-17T03:29:03.692Z,99.85
2022-12-17T03:30:04.119Z,99.96
2022-12-17T03:31:03.786Z,99.96
2022-12-17T03:32:04.103Z,99.99
2022-12-17T03:33:04.345Z,99.99
2022-12-17T03:34:04.006Z,99.99
2022-12-17T03:35:04.083Z,99.99
2022-12-17T03:36:04.600Z,99.99
2022-12-17T03:37:03.389Z,99.99
2022-12-17T03:38:03.560Z,99.99
2022-12-17T03:39:03.295Z,99.99
2022-12-17T03:40:03.823Z,99.99
2022-12-17T03:41:03.494Z,99.99
2022-12-17T03:42:04.247Z,99.99
2022-12-17T03:43:04.292Z,99.96
2022-12-17T03:44:04.072Z,99.85
2022-12-17T03:45:04.031Z,99.90
2022-12-17T03:46:04.298Z,99.99
2022-12-17T03:47:03.172Z,99.99
2022-12-17T03:48:03.465Z,99.99
2022-12-17T03:49:03.581Z,99.99
2022-12-17T03:50:03.490Z,99.99
2022-12-17T03:51:03.534Z,99.99
2022-12-17T03:52:03.733Z,99.99
2022-12-17T03:53:03.595Z,99.99
2022-12-17T03:54:03.652Z,99.99
2022-12-17T03:55:03.360Z,99.99
2022-12-17T03:56:03.313Z,99.99
2022-12-17T03:57:04.027Z,99.99
2022-12-17T03:58:04.038Z,99.99
2022-12-17T03:59:03.663Z,99.99
2022-12-17T04:00:04.037Z,99.99
2022-12-17T04:01:04.163Z,99.99
2022-12-17T04:02:03.727Z,99.99
2022-12-17T04:03:04.261Z,99.99
2022-12-17T04:04:03.997Z,99.99
2022-12-17T04:05:03.550Z,99.99
2022-12-17T04:06:03.727Z,99.99
2022-12-17T04:07:04.109Z,99.99
2022-12-17T04:08:03.969Z,99.99
2022-12-17T04:09:03.888Z,99.99
2022-12-17T04:10:03.717Z,99.96
2022-12-17T04:11:04.033Z,99.64
2022-12-17T04:12:03.709Z,99.37
2022-12-17T04:13:03.532Z,99.27
2022-12-17T04:14:03.219Z,99.27
2022-12-17T04:15:03.216Z,99.37
2022-12-17T04:16:03.360Z,99.37
2022-12-17T04:17:03.204Z,99.52
2022-12-17T04:18:03.360Z,99.52
2022-12-17T04:19:03.526Z,99.73
2022-12-17T04:20:03.642Z,99.95
2022-12-17T04:21:03.794Z,99.95
2022-12-17T04:22:03.277Z,99.95
2022-12-17T04:23:03.980Z,99.95
2022-12-17T04:24:03.649Z,99.95
2022-12-17T04:25:03.546Z,99.73
2022-12-17T04:26:03.717Z,99.73
2022-12-17T04:27:04.306Z,99.84
2022-12-17T04:28:04.314Z,99.73
2022-12-17T04:29:03.738Z,99.84
2022-12-17T04:30:04.026Z,99.78
2022-12-17T04:31:04.332Z,99.95
2022-12-17T04:32:03.209Z,99.99
2022-12-17T04:33:03.306Z,99.95
2022-12-17T04:34:03.264Z,99.95
2022-12-17T04:35:03.541Z,99.99
2022-12-17T04:36:03.519Z,99.99
2022-12-17T04:37:03.370Z,99.99
2022-12-17T04:38:03.850Z,99.99
2022-12-17T04:39:03.775Z,99.99
2022-12-17T04:40:03.400Z,99.99
2022-12-17T04:41:03.675Z,99.99
2022-12-17T04:42:03.582Z,99.84
2022-12-17T04:43:04.084Z,99.73
2022-12-17T04:44:03.875Z,99.52
2022-12-17T04:45:04.184Z,99.31
2022-12-17T04:46:03.920Z,99.35
2022-12-17T04:47:03.511Z,99.46
2022-12-17T04:48:03.317Z,99.35
2022-12-17T04:49:03.109Z,99.57
2022-12-17T04:50:03.211Z,99.78
2022-12-17T04:51:02.977Z,99.88
2022-12-17T04:52:03.788Z,99.88
2022-12-17T04:53:03.401Z,99.88
2022-12-17T04:54:03.442Z,99.88
2022-12-17T04:55:03.170Z,99.78
2022-12-17T04:56:03.343Z,99.99
2022-12-17T04:57:03.223Z,99.99
2022-12-17T04:58:02.745Z,99.99
2022-12-17T04:59:02.847Z,99.99
2022-12-17T05:00:02.736Z,99.99
2022-12-17T05:01:02.984Z,99.99
2022-12-17T05:02:04.482Z,99.88
2022-12-17T05:03:04.204Z,99.67
2022-12-17T05:04:04.337Z,99.35
2022-12-17T05:05:04.088Z,99.67
2022-12-17T05:06:04.132Z,99.88
2022-12-17T05:07:03.109Z,99.57
2022-12-17T05:08:03.036Z,99.35
2022-12-17T05:09:03.453Z,99.25
2022-12-17T05:10:03.456Z,99.15
2022-12-17T05:11:03.532Z,99.35
2022-12-17T05:12:03.440Z,99.25
2022-12-17T05:13:03.595Z,99.04
2022-12-17T05:14:03.523Z,99.19
2022-12-17T05:15:03.143Z,99.30
2022-12-17T05:16:03.193Z,99.40
2022-12-17T05:17:03.621Z,99.51
2022-12-17T05:18:03.267Z,99.61
2022-12-17T05:19:03.121Z,99.82
2022-12-17T05:20:03.648Z,99.72
2022-12-17T05:21:03.245Z,99.61
2022-12-17T05:22:03.483Z,99.82
2022-12-17T05:23:03.717Z,99.93
2022-12-17T05:24:03.807Z,99.99
2022-12-17T05:25:03.568Z,99.88
2022-12-17T05:26:03.464Z,99.51
2022-12-17T05:27:03.269Z,99.25
2022-12-17T05:28:03.186Z,99.08
2022-12-17T05:29:03.376Z,98.98
2022-12-17T05:30:03.623Z,99.08
2022-12-17T05:31:03.317Z,99.08
2022-12-17T05:32:04.155Z,99.40
2022-12-17T05:33:03.941Z,99.08
2022-12-17T05:34:03.859Z,99.08
2022-12-17T05:35:03.492Z,99.08
2022-12-17T05:36:03.839Z,99.19
2022-12-17T05:37:03.433Z,99.19
2022-12-17T05:38:03.246Z,99.08
2022-12-17T05:39:03.242Z,98.92
2022-12-17T05:40:07.815Z,99.13
2022-12-17T05:41:03.484Z,99.44
2022-12-17T05:42:03.731Z,99.55
2022-12-17T05:43:03.260Z,99.34
2022-12-17T05:44:03.152Z,99.24
2022-12-17T05:45:03.266Z,99.34
2022-12-17T05:46:03.686Z,99.34
2022-12-17T05:47:02.838Z,99.24
2022-12-17T05:48:03.230Z,99.13
2022-12-17T05:49:03.174Z,99.13
2022-12-17T05:50:02.991Z,99.13
2022-12-17T05:51:03.151Z,99.24
2022-12-17T05:52:02.895Z,99.24
2022-12-17T05:53:02.830Z,99.24
2022-12-17T05:54:03.164Z,99.13
2022-12-17T05:55:02.858Z,99.24
2022-12-17T05:56:03.193Z,99.44
2022-12-17T05:57:02.611Z,99.55
2022-12-17T05:58:02.636Z,99.60
2022-12-17T05:59:02.745Z,99.60
2022-12-17T06:00:02.814Z,99.70
2022-12-17T06:01:02.622Z,99.80
2022-12-17T06:02:03.787Z,99.91
2022-12-17T06:03:04.119Z,99.87
2022-12-17T06:04:03.879Z,99.87
2022-12-17T06:05:04.007Z,99.87
2022-12-17T06:06:03.640Z,99.76
2022-12-17T06:07:04.256Z,99.76
2022-12-17T06:08:04.007Z,99.66
2022-12-17T06:09:03.870Z,99.66
2022-12-17T06:10:04.477Z,99.66
2022-12-17T06:11:04.453Z,99.66
2022-12-17T06:12:03.692Z,99.55
2022-12-17T06:13:03.814Z,99.66
2022-12-17T06:14:03.625Z,99.76
2022-12-17T06:15:03.219Z,99.76
2022-12-17T06:16:03.544Z,99.76
2022-12-17T06:17:03.672Z,99.66
2022-12-17T06:18:03.584Z,99.76
2022-12-17T06:19:03.403Z,99.76
2022-12-17T06:20:03.863Z,99.55
2022-12-17T06:21:03.457Z,99.66
2022-12-17T06:22:03.562Z,99.70
2022-12-17T06:23:03.313Z,99.70
2022-12-17T06:24:03.333Z,99.80
2022-12-17T06:25:03.455Z,99.80
2022-12-17T06:26:03.256Z,99.91
2022-12-17T06:27:03.701Z,99.91
2022-12-17T06:28:03.502Z,99.91
2022-12-17T06:29:03.236Z,99.91
2022-12-17T06:30:03.157Z,99.80
2022-12-17T06:31:03.638Z,99.91
2022-12-17T06:32:03.946Z,99.91
2022-12-17T06:33:03.897Z,99.99
2022-12-17T06:34:03.558Z,99.99
2022-12-17T06:35:04.163Z,99.99
2022-12-17T06:36:03.671Z,99.99
2022-12-17T06:37:03.482Z,99.80
2022-12-17T06:38:03.475Z,99.70
2022-12-17T06:39:03.521Z,99.80
2022-12-17T06:40:03.801Z,99.91
2022-12-17T06:41:03.636Z,99.80
2022-12-17T06:42:04.703Z,99.99
2022-12-17T06:43:03.643Z,99.91
2022-12-17T06:44:03.529Z,99.91
2022-12-17T06:45:03.755Z,99.99
2022-12-17T06:46:03.933Z,99.99
2022-12-17T06:47:02.964Z,99.99
2022-12-17T06:48:03.102Z,99.80
2022-12-17T06:49:03.359Z,99.91
2022-12-17T06:50:02.843Z,99.91
2022-12-17T06:51:02.970Z,99.80
2022-12-17T06:52:03.540Z,99.76
2022-12-17T06:53:03.255Z,99.66
2022-12-17T06:54:03.738Z,99.49
2022-12-17T06:55:03.621Z,99.49
2022-12-17T06:56:03.789Z,99.60
2022-12-17T06:57:03.388Z,99.60
2022-12-17T06:58:03.082Z,99.70
2022-12-17T06:59:03.375Z,99.60
2022-12-17T07:00:03.336Z,99.70
2022-12-17T07:01:02.940Z,99.80
2022-12-17T07:02:04.581Z,99.80
2022-12-17T07:03:04.235Z,99.70
2022-12-17T07:04:04.354Z,99.80
2022-12-17T07:05:04.110Z,99.80
2022-12-17T07:06:03.926Z,99.99
2022-12-17T07:07:04.288Z,99.91
2022-12-17T07:08:04.903Z,99.80
2022-12-17T07:09:04.397Z,99.91
2022-12-17T07:10:06.936Z,99.99
2022-12-17T07:11:04.714Z,99.99
2022-12-17T07:12:03.702Z,99.99
2022-12-17T07:13:03.719Z,99.99
2022-12-17T07:14:04.214Z,99.99
2022-12-17T07:15:03.579Z,99.99
2022-12-17T07:16:04.281Z,99.91
2022-12-17T07:17:04.132Z,99.80
2022-12-17T07:18:04.616Z,99.80
2022-12-17T07:19:04.279Z,99.80
2022-12-17T07:20:04.383Z,99.91
2022-12-17T07:21:04.516Z,99.99
2022-12-17T07:22:04.131Z,99.91
2022-12-17T07:23:03.986Z,99.80
2022-12-17T07:24:04.220Z,99.80
2022-12-17T07:25:04.229Z,99.91
2022-12-17T07:26:03.531Z,99.80
2022-12-17T07:27:04.268Z,99.80
2022-12-17T07:28:04.432Z,99.80
2022-12-17T07:29:04.491Z,99.91
2022-12-17T07:30:04.305Z,99.99
2022-12-17T07:31:04.324Z,99.91
2022-12-17T07:32:03.572Z,99.70
2022-12-17T07:33:03.367Z,99.70
2022-12-17T07:34:03.396Z,99.80
2022-12-17T07:35:03.303Z,99.70
2022-12-17T07:36:03.501Z,99.80
2022-12-17T07:37:03.996Z,99.80
2022-12-17T07:38:04.187Z,99.91
2022-12-17T07:39:04.114Z,99.80
2022-12-17T07:40:03.943Z,99.70
2022-12-17T07:41:03.719Z,99.60
2022-12-17T07:42:04.091Z,99.70
2022-12-17T07:43:03.893Z,99.70
2022-12-17T07:44:04.263Z,99.60
2022-12-17T07:45:04.006Z,99.49
2022-12-17T07:46:04.640Z,99.38
2022-12-17T07:47:04.017Z,99.49
2022-12-17T07:48:03.818Z,99.49
2022-12-17T07:49:03.633Z,99.38
2022-12-17T07:50:03.427Z,99.28
2022-12-17T07:51:03.611Z,99.49
2022-12-17T07:52:03.610Z,99.60
2022-12-17T07:53:03.897Z,99.60
2022-12-17T07:54:03.611Z,99.60
2022-12-17T07:55:03.854Z,99.49
2022-12-17T07:56:03.548Z,99.49
2022-12-17T07:57:03.641Z,99.28
2022-12-17T07:58:03.290Z,99.28
2022-12-17T07:59:03.515Z,99.18
2022-12-17T08:00:03.513Z,99.18
2022-12-17T08:01:03.367Z,99.18
2022-12-17T08:02:04.133Z,99.18
2022-12-17T08:03:04.097Z,99.18
2022-12-17T08:04:03.831Z,99.18
2022-12-17T08:05:04.050Z,99.28
2022-12-17T08:06:04.347Z,99.28
2022-12-17T08:07:10.126Z,99.28
2022-12-17T08:08:04.530Z,99.18
2022-12-17T08:09:04.637Z,99.28
2022-12-17T08:10:04.362Z,99.18
2022-12-17T08:11:04.707Z,99.07
2022-12-17T08:12:04.840Z,99.28
2022-12-17T08:13:08.336Z,99.49
2022-12-17T08:14:05.346Z,99.44
2022-12-17T08:15:04.470Z,99.07
2022-12-17T08:16:04.571Z,98.96
2022-12-17T08:17:04.138Z,99.18
2022-12-17T08:18:03.920Z,99.28
2022-12-17T08:19:03.783Z,99.24
2022-12-17T08:20:03.683Z,99.24
2022-12-17T08:21:03.850Z,99.13
2022-12-17T08:22:04.195Z,99.02
2022-12-17T08:23:04.241Z,98.81
2022-12-17T08:24:03.770Z,98.71
2022-12-17T08:25:03.728Z,98.71
2022-12-17T08:26:04.009Z,98.60
2022-12-17T08:27:04.619Z,98.71
2022-12-17T08:28:10.921Z,98.55
2022-12-17T08:29:04.408Z,98.66
2022-12-17T08:30:04.531Z,98.45
2022-12-17T08:31:04.370Z,98.13
2022-12-17T08:32:03.985Z,98.13
2022-12-17T08:33:03.543Z,98.13
2022-12-17T08:34:07.833Z,98.13
2022-12-17T08:35:03.730Z,97.71
2022-12-17T08:36:03.482Z,97.92
2022-12-17T08:37:04.031Z,98.24
2022-12-17T08:38:03.619Z,98.24
2022-12-17T08:39:04.080Z,98.13
2022-12-17T08:40:03.588Z,97.92
2022-12-17T08:41:03.743Z,97.81
2022-12-17T08:42:04.796Z,97.71
2022-12-17T08:43:04.153Z,97.61
2022-12-17T08:44:04.164Z,97.92
2022-12-17T08:45:04.374Z,97.92
2022-12-17T08:46:04.246Z,97.92
2022-12-17T08:47:04.421Z,97.92
2022-12-17T08:48:04.677Z,98.13
2022-12-17T08:49:04.244Z,98.13
2022-12-17T08:50:04.772Z,98.24
2022-12-17T08:51:04.731Z,98.35
2022-12-17T08:52:03.945Z,98.35
2022-12-17T08:53:03.355Z,97.92
2022-12-17T08:54:03.949Z,97.92
2022-12-17T08:55:03.530Z,98.13
2022-12-17T08:56:03.909Z,98.13
2022-12-17T08:57:03.886Z,97.81
2022-12-17T08:58:03.528Z,97.50
2022-12-17T08:59:03.735Z,97.50
2022-12-17T09:00:03.774Z,97.81
2022-12-17T09:01:03.975Z,98.03
2022-12-17T09:02:04.465Z,98.03
2022-12-17T09:03:04.248Z,98.03
2022-12-17T09:04:04.028Z,98.03
2022-12-17T09:05:03.701Z,97.81
2022-12-17T09:06:03.730Z,97.81
2022-12-17T09:07:03.684Z,97.92
2022-12-17T09:08:03.601Z,97.92
2022-12-17T09:09:03.771Z,98.03
2022-12-17T09:10:03.644Z,98.03
2022-12-17T09:11:03.550Z,98.13
2022-12-17T09:12:04.203Z,98.13
2022-12-17T09:13:05.123Z,98.03
2022-12-17T09:14:03.970Z,98.35
2022-12-17T09:15:03.834Z,98.41
2022-12-17T09:16:04.172Z,98.09
2022-12-17T09:17:03.729Z,98.09
2022-12-17T09:18:03.319Z,98.41
2022-12-17T09:19:03.364Z,98.41
2022-12-17T09:20:03.442Z,97.99
2022-12-17T09:21:03.306Z,97.77
2022-12-17T09:22:03.533Z,97.35
2022-12-17T09:23:03.441Z,97.35
2022-12-17T09:24:03.498Z,97.67
2022-12-17T09:25:03.451Z,97.77
2022-12-17T09:26:02.831Z,97.77
2022-12-17T09:27:03.811Z,97.88
2022-12-17T09:28:03.282Z,97.99
2022-12-17T09:29:03.469Z,98.09
2022-12-17T09:30:03.166Z,98.09
2022-12-17T09:31:03.407Z,97.99
2022-12-17T09:32:03.679Z,97.88
2022-12-17T09:33:03.456Z,97.67
2022-12-17T09:34:03.370Z,97.45
2022-12-17T09:35:03.638Z,97.35
2022-12-17T09:36:03.681Z,97.45
2022-12-17T09:37:03.268Z,97.56
2022-12-17T09:38:03.397Z,97.56
2022-12-17T09:39:03.448Z,97.35
2022-12-17T09:40:02.966Z,97.45
2022-12-17T09:41:03.412Z,97.63
2022-12-17T09:42:03.317Z,97.41
2022-12-17T09:43:03.574Z,97.09
2022-12-17T09:44:02.988Z,96.99
2022-12-17T09:45:03.441Z,96.89
2022-12-17T09:46:03.157Z,97.09
2022-12-17T09:47:03.781Z,97.09
2022-12-17T09:48:03.743Z,96.78
2022-12-17T09:49:03.560Z,96.89
2022-12-17T09:50:03.657Z,96.42
2022-12-17T09:51:03.559Z,96.36
2022-12-17T09:52:03.892Z,96.36
2022-12-17T09:53:03.570Z,96.04
2022-12-17T09:54:03.907Z,96.15
2022-12-17T09:55:03.671Z,96.42
2022-12-17T09:56:03.649Z,96.31
2022-12-17T09:57:02.801Z,96.42
2022-12-17T09:58:03.381Z,96.31
2022-12-17T09:59:02.973Z,96.17
2022-12-17T10:00:02.989Z,95.85
2022-12-17T10:01:02.828Z,95.95
2022-12-17T10:02:04.420Z,95.95
2022-12-17T10:03:04.823Z,96.12
2022-12-17T10:04:04.148Z,95.28
2022-12-17T10:05:04.677Z,94.34
2022-12-17T10:06:04.136Z,93.80
2022-12-17T10:07:04.384Z,93.53
2022-12-17T10:08:03.922Z,93.43
2022-12-17T10:09:04.070Z,93.74
2022-12-17T10:10:04.216Z,93.95
2022-12-17T10:11:03.696Z,94.17
2022-12-17T10:12:03.808Z,94.48
2022-12-17T10:13:03.925Z,94.44
2022-12-17T10:14:04.163Z,94.02
2022-12-17T10:15:04.021Z,93.49
2022-12-17T10:16:03.911Z,93.64
2022-12-17T10:17:08.548Z,93.85
2022-12-17T10:18:04.297Z,93.95
2022-12-17T10:19:04.636Z,94.23
2022-12-17T10:20:04.555Z,93.70
2022-12-17T10:21:04.115Z,93.38
2022-12-17T10:22:03.502Z,93.07
2022-12-17T10:23:03.460Z,93.18
2022-12-17T10:24:03.728Z,93.49
2022-12-17T10:25:03.980Z,93.76
2022-12-17T10:26:03.749Z,93.76
2022-12-17T10:27:03.718Z,93.34
2022-12-17T10:28:04.253Z,93.34
2022-12-17T10:29:04.180Z,93.34
2022-12-17T10:30:04.237Z,93.09
2022-12-17T10:31:04.120Z,93.19
2022-12-17T10:32:03.152Z,92.77
2022-12-17T10:33:03.318Z,92.35
2022-12-17T10:34:03.350Z,90.99
2022-12-17T10:35:05.651Z,91.51
2022-12-17T10:36:03.008Z,92.04
2022-12-17T10:37:03.421Z,91.72
2022-12-17T10:38:03.479Z,91.30
2022-12-17T10:39:03.528Z,91.62
2022-12-17T10:40:03.632Z,91.09
2022-12-17T10:41:03.568Z,90.88
2022-12-17T10:42:03.887Z,91.51
2022-12-17T10:43:03.788Z,91.68
2022-12-17T10:44:03.823Z,91.68
2022-12-17T10:45:03.789Z,90.84
2022-12-17T10:46:04.352Z,90.11
2022-12-17T10:47:03.626Z,90.21
2022-12-17T10:48:03.612Z,90.78
2022-12-17T10:49:08.256Z,91.58
2022-12-17T10:50:03.084Z,91.89
2022-12-17T10:51:03.622Z,91.05
2022-12-17T10:52:03.901Z,90.73
2022-12-17T10:53:03.720Z,91.78
2022-12-17T10:54:03.961Z,92.27
2022-12-17T10:55:03.993Z,92.02
2022-12-17T10:56:04.148Z,90.23
2022-12-17T10:57:03.482Z,90.12
2022-12-17T10:58:03.603Z,89.81
2022-12-17T10:59:03.677Z,89.18
2022-12-17T11:00:03.741Z,89.39
2022-12-17T11:01:03.748Z,89.14
2022-12-17T11:02:03.773Z,88.76
2022-12-17T11:03:03.725Z,89.77
2022-12-17T11:04:03.393Z,89.87
2022-12-17T11:05:03.347Z,89.73
2022-12-17T11:06:03.944Z,90.05
2022-12-17T11:07:03.363Z,90.25
2022-12-17T11:08:03.069Z,90.11
2022-12-17T11:09:03.010Z,89.17
2022-12-17T11:10:09.046Z,88.18
2022-12-17T11:11:03.394Z,87.97
2022-12-17T11:12:07.312Z,87.45
2022-12-17T11:13:04.044Z,87.03
2022-12-17T11:14:04.187Z,87.34
2022-12-17T11:15:04.089Z,88.46
2022-12-17T11:16:04.244Z,87.62
2022-12-17T11:17:03.476Z,87.30
2022-12-17T11:18:09.483Z,86.68
2022-12-17T11:19:03.725Z,85.73
2022-12-17T11:20:03.751Z,85.73
2022-12-17T11:21:03.573Z,85.98
2022-12-17T11:22:03.856Z,85.66
2022-12-17T11:23:03.528Z,86.71
2022-12-17T11:24:03.699Z,87.03
2022-12-17T11:25:04.043Z,86.82
2022-12-17T11:26:04.034Z,86.82
2022-12-17T11:27:03.627Z,86.82
2022-12-17T11:28:03.645Z,86.61
2022-12-17T11:29:03.515Z,86.82
2022-12-17T11:30:03.918Z,86.96
2022-12-17T11:31:03.632Z,87.55
2022-12-17T11:32:03.498Z,87.76
2022-12-17T11:33:03.479Z,89.09
2022-12-17T11:34:03.150Z,88.46
2022-12-17T11:35:03.070Z,86.78
2022-12-17T11:36:03.313Z,86.46
2022-12-17T11:37:03.177Z,86.68
2022-12-17T11:38:03.484Z,86.25
2022-12-17T11:39:03.213Z,86.78
2022-12-17T11:40:03.223Z,86.85
2022-12-17T11:41:03.147Z,86.63
2022-12-17T11:42:08.039Z,86.22
2022-12-17T11:43:03.389Z,86.11
2022-12-17T11:44:03.313Z,85.90
2022-12-17T11:45:03.203Z,86.22
2022-12-17T11:46:03.481Z,86.22
2022-12-17T11:47:03.386Z,86.07
2022-12-17T11:48:03.422Z,86.28
2022-12-17T11:49:03.650Z,85.86
2022-12-17T11:50:03.534Z,85.75
2022-12-17T11:51:03.347Z,85.24
2022-12-17T11:52:03.190Z,85.34
2022-12-17T11:53:02.997Z,85.55
2022-12-17T11:54:03.245Z,85.02
2022-12-17T11:55:02.609Z,85.24
2022-12-17T11:56:03.081Z,85.44
2022-12-17T11:57:03.364Z,85.34
2022-12-17T11:58:03.683Z,85.44
2022-12-17T11:59:03.161Z,84.92
2022-12-17T12:00:04.477Z,85.13
2022-12-17T12:01:03.033Z,84.92
2022-12-17T12:02:04.439Z,84.81
2022-12-17T12:03:04.931Z,85.06
2022-12-17T12:04:04.214Z,85.06
2022-12-17T12:05:04.698Z,85.48
2022-12-17T12:06:04.722Z,85.83
2022-12-17T12:07:04.300Z,86.05
2022-12-17T12:08:03.750Z,86.57
2022-12-17T12:09:03.850Z,86.57
2022-12-17T12:10:04.276Z,86.57
2022-12-17T12:11:04.167Z,86.43
2022-12-17T12:12:04.760Z,85.90
2022-12-17T12:13:04.657Z,85.83
2022-12-17T12:14:04.554Z,86.15
2022-12-17T12:15:04.340Z,86.25
2022-12-17T12:16:04.286Z,86.46
2022-12-17T12:17:04.883Z,86.57
2022-12-17T12:18:04.684Z,86.68
2022-12-17T12:19:04.703Z,86.78
2022-12-17T12:20:04.373Z,86.78
2022-12-17T12:21:04.348Z,86.99
2022-12-17T12:22:04.539Z,86.99
2022-12-17T12:23:04.506Z,87.09
2022-12-17T12:24:04.021Z,87.09
2022-12-17T12:25:04.125Z,86.78
2022-12-17T12:26:04.210Z,86.78
2022-12-17T12:27:04.890Z,87.20
2022-12-17T12:28:04.494Z,87.20
2022-12-17T12:29:04.460Z,87.20
2022-12-17T12:30:04.290Z,87.20
2022-12-17T12:31:04.722Z,87.51
2022-12-17T12:32:03.884Z,87.30
2022-12-17T12:33:09.817Z,87.51
2022-12-17T12:34:04.332Z,87.41
2022-12-17T12:35:04.353Z,87.41
2022-12-17T12:36:04.441Z,87.51
2022-12-17T12:37:04.005Z,87.51
2022-12-17T12:38:04.159Z,87.62
2022-12-17T12:39:04.343Z,87.41
2022-12-17T12:40:04.387Z,87.41
2022-12-17T12:41:04.048Z,87.30
2022-12-17T12:42:04.514Z,87.45
2022-12-17T12:43:04.081Z,87.55
2022-12-17T12:44:03.724Z,88.07
2022-12-17T12:45:04.089Z,88.39
2022-12-17T12:46:04.085Z,87.87
2022-12-17T12:47:03.715Z,87.97
2022-12-17T12:48:04.261Z,87.76
2022-12-17T12:49:04.258Z,88.07
2022-12-17T12:50:04.254Z,88.39
2022-12-17T12:51:04.016Z,88.39
2022-12-17T12:52:03.961Z,87.97